BBC Polonia — V2EZ6 — position and weather

sailwx.info

Track history (hours):
 
Tides and Currents Weather Stations Pressure Air Temp Water Temp Dewpoint Dewpoint Depression Visibility Wind Speed Wind Dir Waves Ship Positions

BBC Polonia

Last reported at 2015-Aug-22 02:33 UTC. Time now 2015-Sep-04 14:39 UTC.
Position N 49°07' W 005°14'.
Warning: this ship's position is 13 days out of date.

Length 123 m; draft 6.6 m.

Type: Cargo ship. MMSI: 305614000.

Date/timePositionNaut miles runAvg speedWind from/ knotsBaromVisibWave heightAir tempDewpointWater temp
2015-Aug-22 02:33N 49°07' W 005°14'2014.5
2015-Aug-22 01:08N 49°17' W 004°47'1414.0
2015-Aug-22 00:07N 49°25' W 004°28'2513.2
2015-Aug-21 22:13N 49°37' W 003°55'12514.0
2015-Aug-21 13:20N 50°22' W 000°54'1010.1
2015-Aug-21 12:22N 50°25' W 000°39'1110.3
2015-Aug-21 11:15N 50°28' W 000°22'2311.8
2015-Aug-21 09:20N 50°34' E 000°12'1013.1
2015-Aug-21 08:33N 50°37' E 000°28'1313.3
2015-Aug-21 07:33N 50°44' E 000°46'1312.6
2015-Aug-21 06:34N 50°51' E 001°02'1511.5
2015-Aug-21 05:15N 51°01' E 001°21'710.1
2015-Aug-21 04:34N 51°05' E 001°29'9 9.5
2015-Aug-21 03:33N 51°11' E 001°41'1010.4
2015-Aug-21 02:34N 51°20' E 001°51'1010.4
2015-Aug-21 01:33N 51°24' E 002°06'1212.0
2015-Aug-21 00:33N 51°22' E 002°25'1212.6
2015-Aug-20 23:33N 51°22' E 002°45'1312.6
2015-Aug-20 22:33N 51°24' E 003°04'1514.4
2015-Aug-20 21:33N 51°25' E 003°28'1111.0
2015-Aug-20 20:33N 51°22' E 003°45'1111.1
2015-Aug-20 19:34N 51°25' E 004°02'10 9.9
2015-Aug-20 18:33N 51°20' E 004°16'4 4.2
2015-Aug-20 17:34N 51°17' E 004°20'2 2.1
2015-Aug-20 16:34N 51°15' E 004°22'2 1.7
2015-Aug-20 15:33N 51°15' E 004°25'0 0.0
2015-Aug-20 14:33N 51°15' E 004°25'0 0.0
2015-Aug-20 13:33N 51°15' E 004°25'0 0.0
2015-Aug-20 12:33N 51°15' E 004°25'0 0.0
2015-Aug-20 11:33N 51°15' E 004°25'0 0.0
2015-Aug-20 10:33N 51°15' E 004°25'0 0.0
2015-Aug-20 09:33N 51°15' E 004°25'0 0.0
2015-Aug-20 08:30N 51°15' E 004°25'0 0.0
2015-Aug-20 07:33N 51°15' E 004°25'0 0.0
2015-Aug-20 06:33N 51°15' E 004°25'0 0.0
2015-Aug-20 05:33N 51°15' E 004°25'0 0.0
2015-Aug-20 04:33N 51°15' E 004°25'0 0.0
2015-Aug-20 03:33N 51°15' E 004°25'0 0.0
2015-Aug-20 02:33N 51°15' E 004°25'0 0.0
2015-Aug-20 01:33N 51°15' E 004°25'0 0.0
2015-Aug-20 00:33N 51°15' E 004°25'0 0.0
2015-Aug-19 23:33N 51°15' E 004°25'0 0.0
2015-Aug-19 22:33N 51°15' E 004°25'0 0.0
2015-Aug-19 21:33N 51°15' E 004°25'0 0.0
2015-Aug-19 20:33N 51°15' E 004°25'0 0.0
2015-Aug-19 19:33N 51°15' E 004°25'0 0.0
2015-Aug-19 18:33N 51°15' E 004°25'0 0.0
2015-Aug-19 17:30N 51°15' E 004°25'0 0.0
2015-Aug-19 16:33N 51°15' E 004°25'0 0.0
2015-Aug-19 15:33N 51°15' E 004°25'0 0.0
2015-Aug-19 14:33N 51°15' E 004°25'0 0.0
2015-Aug-19 13:33N 51°15' E 004°25'0 0.0
2015-Aug-19 12:33N 51°15' E 004°25'0 0.0
2015-Aug-19 11:33N 51°15' E 004°25'0 0.0
2015-Aug-19 10:33N 51°15' E 004°25'0 0.0
2015-Aug-19 09:33N 51°15' E 004°25'0 0.0
2015-Aug-19 08:33N 51°15' E 004°25'0 0.0
2015-Aug-19 07:33N 51°15' E 004°25'0 0.0
2015-Aug-19 06:33N 51°15' E 004°25'0 0.0
2015-Aug-19 05:33N 51°15' E 004°25'0 0.0
2015-Aug-19 04:33N 51°15' E 004°25'0 0.0
2015-Aug-19 03:33N 51°15' E 004°25'0 0.0
2015-Aug-19 02:33N 51°15' E 004°25'0 0.0
2015-Aug-19 01:33N 51°15' E 004°25'0 0.0
2015-Aug-19 00:33N 51°15' E 004°25'0 0.0
2015-Aug-18 23:33N 51°15' E 004°25'0 0.0
2015-Aug-18 22:33N 51°15' E 004°25'0 0.0
2015-Aug-18 21:33N 51°15' E 004°25'0 0.0
2015-Aug-18 20:33N 51°15' E 004°25'0 0.0
2015-Aug-18 19:33N 51°15' E 004°25'0 0.1
2015-Aug-18 18:31N 51°15' E 004°25'0 0.0
2015-Aug-18 17:31N 51°15' E 004°25'0 0.0
2015-Aug-18 16:31N 51°15' E 004°25'0 0.0
2015-Aug-18 15:31N 51°15' E 004°25'0 0.0
2015-Aug-18 14:31N 51°15' E 004°25'0 0.0
2015-Aug-18 13:31N 51°15' E 004°25'0 0.0
2015-Aug-18 12:31N 51°15' E 004°25'0 0.0
2015-Aug-18 11:31N 51°15' E 004°25'0 0.0
2015-Aug-18 10:31N 51°15' E 004°25'0 0.0
2015-Aug-18 09:28N 51°15' E 004°25'0 0.0
2015-Aug-18 08:31N 51°15' E 004°25'0 0.0
2015-Aug-18 07:31N 51°15' E 004°25'0 0.0
2015-Aug-18 06:31N 51°15' E 004°25'0 0.0
2015-Aug-18 05:31N 51°15' E 004°25'0 0.0
2015-Aug-18 04:31N 51°15' E 004°25'0 0.0
2015-Aug-18 04:10N 51°15' E 004°25'0 0.0
2015-Aug-18 04:07N 51°15' E 004°25'0 0.0
2015-Aug-18 03:31N 51°15' E 004°25'0 0.0
2015-Aug-18 02:31N 51°15' E 004°25'0 0.0
2015-Aug-18 01:31N 51°15' E 004°25'0 0.0
2015-Aug-18 00:31N 51°15' E 004°25'0 0.0
2015-Aug-17 23:31N 51°15' E 004°25'0 0.0
2015-Aug-17 22:31N 51°15' E 004°25'0 0.0
2015-Aug-17 21:31N 51°15' E 004°25'0 0.0
2015-Aug-17 20:31N 51°15' E 004°25'0 0.0
2015-Aug-17 19:31N 51°15' E 004°25'0 0.0
2015-Aug-17 18:28N 51°15' E 004°25'0 0.0
2015-Aug-17 17:31N 51°15' E 004°25'0 0.0
2015-Aug-17 16:31N 51°15' E 004°25'0 0.0
2015-Aug-17 15:31N 51°15' E 004°25'0 0.0
2015-Aug-17 14:31N 51°15' E 004°25'0 0.0
2015-Aug-17 13:31N 51°15' E 004°25'0 0.0
2015-Aug-17 12:31N 51°15' E 004°25'0 0.0
2015-Aug-17 11:31N 51°15' E 004°25'0 0.0
2015-Aug-17 10:31N 51°15' E 004°25'0 0.0
2015-Aug-17 09:31N 51°15' E 004°25'0 0.0
2015-Aug-17 08:33N 51°15' E 004°25'2 2.1
2015-Aug-17 07:33N 51°16' E 004°21'6 5.7
2015-Aug-17 06:34N 51°21' E 004°17'0 0.2
2015-Aug-17 05:33N 51°21' E 004°17'5 5.0
2015-Aug-17 04:33N 51°23' E 004°10'8 8.3
2015-Aug-17 03:34N 51°23' E 003°57'1111.0
2015-Aug-17 02:34N 51°26' E 003°40'1111.0
2015-Aug-17 01:33N 51°33' E 003°25'1312.1
2015-Aug-17 00:31N 51°43' E 003°15'  
2015-Aug-13 23:16N 51°46' E 003°17'0 0.0
2015-Aug-13 22:28N 51°46' E 003°17'0 0.0
2015-Aug-13 17:19N 51°46' E 003°17'30 9.5
2015-Aug-13 14:13N 52°15' E 003°05'  
Track history (hours):
 
Tides and Currents Weather Stations Pressure Air Temp Water Temp Dewpoint Dewpoint Depression Visibility Wind Speed Wind Dir Waves Ship Positions

BBC Polonia

Last reported at 2015-Aug-22 02:33 UTC. Time now 2015-Sep-04 14:39 UTC.
Position N 49°07' W 005°14'.
Warning: this ship's position is 13 days out of date.

Length 123 m; draft 6.6 m.

Type: Cargo ship. MMSI: 305614000.

Date/timePositionNaut miles runAvg speedWind from/ knotsBaromVisibWave heightAir tempDewpointWater temp
2015-Aug-22 02:33N 49°07' W 005°14'2014.5
2015-Aug-22 01:08N 49°17' W 004°47'1414.0
2015-Aug-22 00:07N 49°25' W 004°28'2513.2
2015-Aug-21 22:13N 49°37' W 003°55'12514.0
2015-Aug-21 13:20N 50°22' W 000°54'1010.1
2015-Aug-21 12:22N 50°25' W 000°39'1110.3
2015-Aug-21 11:15N 50°28' W 000°22'2311.8
2015-Aug-21 09:20N 50°34' E 000°12'1013.1
2015-Aug-21 08:33N 50°37' E 000°28'1313.3
2015-Aug-21 07:33N 50°44' E 000°46'1312.6
2015-Aug-21 06:34N 50°51' E 001°02'1511.5
2015-Aug-21 05:15N 51°01' E 001°21'710.1
2015-Aug-21 04:34N 51°05' E 001°29'9 9.5
2015-Aug-21 03:33N 51°11' E 001°41'1010.4
2015-Aug-21 02:34N 51°20' E 001°51'1010.4
2015-Aug-21 01:33N 51°24' E 002°06'1212.0
2015-Aug-21 00:33N 51°22' E 002°25'1212.6
2015-Aug-20 23:33N 51°22' E 002°45'1312.6
2015-Aug-20 22:33N 51°24' E 003°04'1514.4
2015-Aug-20 21:33N 51°25' E 003°28'1111.0
2015-Aug-20 20:33N 51°22' E 003°45'1111.1
2015-Aug-20 19:34N 51°25' E 004°02'10 9.9
2015-Aug-20 18:33N 51°20' E 004°16'4 4.2
2015-Aug-20 17:34N 51°17' E 004°20'2 2.1
2015-Aug-20 16:34N 51°15' E 004°22'2 1.7
2015-Aug-20 15:33N 51°15' E 004°25'0 0.0
2015-Aug-20 14:33N 51°15' E 004°25'0 0.0
2015-Aug-20 13:33N 51°15' E 004°25'0 0.0
2015-Aug-20 12:33N 51°15' E 004°25'0 0.0
2015-Aug-20 11:33N 51°15' E 004°25'0 0.0
2015-Aug-20 10:33N 51°15' E 004°25'0 0.0
2015-Aug-20 09:33N 51°15' E 004°25'0 0.0
2015-Aug-20 08:30N 51°15' E 004°25'0 0.0
2015-Aug-20 07:33N 51°15' E 004°25'0 0.0
2015-Aug-20 06:33N 51°15' E 004°25'0 0.0
2015-Aug-20 05:33N 51°15' E 004°25'0 0.0
2015-Aug-20 04:33N 51°15' E 004°25'0 0.0
2015-Aug-20 03:33N 51°15' E 004°25'0 0.0
2015-Aug-20 02:33N 51°15' E 004°25'0 0.0
2015-Aug-20 01:33N 51°15' E 004°25'0 0.0
2015-Aug-20 00:33N 51°15' E 004°25'0 0.0
2015-Aug-19 23:33N 51°15' E 004°25'0 0.0
2015-Aug-19 22:33N 51°15' E 004°25'0 0.0
2015-Aug-19 21:33N 51°15' E 004°25'0 0.0
2015-Aug-19 20:33N 51°15' E 004°25'0 0.0
2015-Aug-19 19:33N 51°15' E 004°25'0 0.0
2015-Aug-19 18:33N 51°15' E 004°25'0 0.0
2015-Aug-19 17:30N 51°15' E 004°25'0 0.0
2015-Aug-19 16:33N 51°15' E 004°25'0 0.0
2015-Aug-19 15:33N 51°15' E 004°25'0 0.0
2015-Aug-19 14:33N 51°15' E 004°25'0 0.0
2015-Aug-19 13:33N 51°15' E 004°25'0 0.0
2015-Aug-19 12:33N 51°15' E 004°25'0 0.0
2015-Aug-19 11:33N 51°15' E 004°25'0 0.0
2015-Aug-19 10:33N 51°15' E 004°25'0 0.0
2015-Aug-19 09:33N 51°15' E 004°25'0 0.0
2015-Aug-19 08:33N 51°15' E 004°25'0 0.0
2015-Aug-19 07:33N 51°15' E 004°25'0 0.0
2015-Aug-19 06:33N 51°15' E 004°25'0 0.0
2015-Aug-19 05:33N 51°15' E 004°25'0 0.0
2015-Aug-19 04:33N 51°15' E 004°25'0 0.0
2015-Aug-19 03:33N 51°15' E 004°25'0 0.0
2015-Aug-19 02:33N 51°15' E 004°25'0 0.0
2015-Aug-19 01:33N 51°15' E 004°25'0 0.0
2015-Aug-19 00:33N 51°15' E 004°25'0 0.0
2015-Aug-18 23:33N 51°15' E 004°25'0 0.0
2015-Aug-18 22:33N 51°15' E 004°25'0 0.0
2015-Aug-18 21:33N 51°15' E 004°25'0 0.0
2015-Aug-18 20:33N 51°15' E 004°25'0 0.0
2015-Aug-18 19:33N 51°15' E 004°25'0 0.1
2015-Aug-18 18:31N 51°15' E 004°25'0 0.0
2015-Aug-18 17:31N 51°15' E 004°25'0 0.0
2015-Aug-18 16:31N 51°15' E 004°25'0 0.0
2015-Aug-18 15:31N 51°15' E 004°25'0 0.0
2015-Aug-18 14:31N 51°15' E 004°25'0 0.0
2015-Aug-18 13:31N 51°15' E 004°25'0 0.0
2015-Aug-18 12:31N 51°15' E 004°25'0 0.0
2015-Aug-18 11:31N 51°15' E 004°25'0 0.0
2015-Aug-18 10:31N 51°15' E 004°25'0 0.0
2015-Aug-18 09:28N 51°15' E 004°25'0 0.0
2015-Aug-18 08:31N 51°15' E 004°25'0 0.0
2015-Aug-18 07:31N 51°15' E 004°25'0 0.0
2015-Aug-18 06:31N 51°15' E 004°25'0 0.0
2015-Aug-18 05:31N 51°15' E 004°25'0 0.0
2015-Aug-18 04:31N 51°15' E 004°25'0 0.0
2015-Aug-18 04:10N 51°15' E 004°25'0 0.0
2015-Aug-18 04:07N 51°15' E 004°25'0 0.0
2015-Aug-18 03:31N 51°15' E 004°25'0 0.0
2015-Aug-18 02:31N 51°15' E 004°25'0 0.0
2015-Aug-18 01:31N 51°15' E 004°25'0 0.0
2015-Aug-18 00:31N 51°15' E 004°25'0 0.0
2015-Aug-17 23:31N 51°15' E 004°25'0 0.0
2015-Aug-17 22:31N 51°15' E 004°25'0 0.0
2015-Aug-17 21:31N 51°15' E 004°25'0 0.0
2015-Aug-17 20:31N 51°15' E 004°25'0 0.0
2015-Aug-17 19:31N 51°15' E 004°25'0 0.0
2015-Aug-17 18:28N 51°15' E 004°25'0 0.0
2015-Aug-17 17:31N 51°15' E 004°25'0 0.0
2015-Aug-17 16:31N 51°15' E 004°25'0 0.0
2015-Aug-17 15:31N 51°15' E 004°25'0 0.0
2015-Aug-17 14:31N 51°15' E 004°25'0 0.0
2015-Aug-17 13:31N 51°15' E 004°25'0 0.0
2015-Aug-17 12:31N 51°15' E 004°25'0 0.0
2015-Aug-17 11:31N 51°15' E 004°25'0 0.0
2015-Aug-17 10:31N 51°15' E 004°25'0 0.0
2015-Aug-17 09:31N 51°15' E 004°25'0 0.0
2015-Aug-17 08:33N 51°15' E 004°25'2 2.1
2015-Aug-17 07:33N 51°16' E 004°21'6 5.7
2015-Aug-17 06:34N 51°21' E 004°17'0 0.2
2015-Aug-17 05:33N 51°21' E 004°17'5 5.0
2015-Aug-17 04:33N 51°23' E 004°10'8 8.3
2015-Aug-17 03:34N 51°23' E 003°57'1111.0
2015-Aug-17 02:34N 51°26' E 003°40'1111.0
2015-Aug-17 01:33N 51°33' E 003°25'1312.1
2015-Aug-17 00:31N 51°43' E 003°15'  
2015-Aug-13 23:16N 51°46' E 003°17'0 0.0
2015-Aug-13 22:28N 51°46' E 003°17'0 0.0
2015-Aug-13 17:19N 51°46' E 003°17'30 9.5
2015-Aug-13 14:13N 52°15' E 003°05'  

Dump ship's entire track history